KBVI

Beaver County Airport

Beaver Falls, Pennsylvania, USA
KBVI 232334Z 2400/2424 32007KT P6SM BKN050 FM241200 32007G14KT P6SM OVC035
Issued Valid From Valid To
Oct-23 @ 23:34 UTC
(5 hours ago)
Oct-24 @ 00:00 UTC
(5 hours ago)
Oct-25 @ 00:00 UTC
(in 19 hours)
Oct-24 @ 00:00 to Oct-24 @ 12:00
KBVI 232334Z 2400/2424 32007KT P6SM BKN050
Wind Visibility Clouds
320° at 7 knots Greater than 6 miles
  • Broken at 5,000' AGL
From Oct-24 @ 12:00 to Oct-25 @ 00:00
FM241200 32007G14KT P6SM OVC035
Wind Visibility Clouds
320° at 7 knots
 Gusting to 14 knots
Greater than 6 miles
  • Overcast at 3,500' AGL
KBVI 232334Z 2400/2424 32007KT P6SM BKN050 FM241200 32007G14KT P6SM OVC035
Issued Oct-23 @ 23:34 UTC
(5 hours ago)
Valid From Oct-24 @ 00:00 UTC
(5 hours ago)
Valid To Oct-25 @ 00:00 UTC
(in 19 hours)
Oct-24 @ 00:00 - Oct-24 @ 12:00
Wind Visibility
320° at 7 knots Greater than 6 miles
Clouds
  • Broken at 5,000' AGL
From Oct-24 @ 12:00 - Oct-25 @ 00:00
Wind Visibility
320° at 7 knots
 Gusting to 14 knots
Greater than 6 miles
Clouds
  • Overcast at 3,500' AGL